sensor_id;sensor_type;location;lat;lon;timestamp;P1;durP1;ratioP1;P2;durP2;ratioP2
26201;SDS011;13944;28.562;77.188;2022-12-18T00:02:22;289.83;;;192.00;;
26201;SDS011;13944;28.562;77.188;2022-12-18T00:04:49;296.70;;;200.20;;
26201;SDS011;13944;28.562;77.188;2022-12-18T00:07:15;287.67;;;189.93;;
26201;SDS011;13944;28.562;77.188;2022-12-18T00:09:42;287.83;;;191.97;;
26201;SDS011;13944;28.562;77.188;2022-12-18T00:12:08;280.67;;;186.70;;
26201;SDS011;13944;28.562;77.188;2022-12-18T00:14:35;280.50;;;193.57;;
26201;SDS011;13944;28.562;77.188;2022-12-18T00:17:01;278.50;;;188.27;;
26201;SDS011;13944;28.562;77.188;2022-12-18T00:19:28;277.50;;;188.50;;
26201;SDS011;13944;28.562;77.188;2022-12-18T00:21:55;288.13;;;190.33;;
26201;SDS011;13944;28.562;77.188;2022-12-18T00:24:23;289.07;;;189.73;;
26201;SDS011;13944;28.562;77.188;2022-12-18T00:26:49;292.80;;;194.33;;
26201;SDS011;13944;28.562;77.188;2022-12-18T00:29:16;285.63;;;192.23;;
26201;SDS011;13944;28.562;77.188;2022-12-18T00:31:42;287.53;;;190.43;;
26201;SDS011;13944;28.562;77.188;2022-12-18T00:34:10;289.20;;;191.70;;
26201;SDS011;13944;28.562;77.188;2022-12-18T00:36:37;279.17;;;187.20;;
26201;SDS011;13944;28.562;77.188;2022-12-18T00:39:04;283.20;;;189.03;;
26201;SDS011;13944;28.562;77.188;2022-12-18T00:41:31;275.73;;;187.37;;
26201;SDS011;13944;28.562;77.188;2022-12-18T00:44:17;285.07;;;190.20;;
26201;SDS011;13944;28.562;77.188;2022-12-18T00:46:43;285.37;;;193.23;;
26201;SDS011;13944;28.562;77.188;2022-12-18T00:49:10;287.40;;;188.67;;
26201;SDS011;13944;28.562;77.188;2022-12-18T00:51:37;296.97;;;192.40;;
26201;SDS011;13944;28.562;77.188;2022-12-18T00:54:03;277.80;;;187.57;;
26201;SDS011;13944;28.562;77.188;2022-12-18T00:56:30;301.03;;;201.17;;
26201;SDS011;13944;28.562;77.188;2022-12-18T00:58:57;317.33;;;208.37;;
26201;SDS011;13944;28.562;77.188;2022-12-18T01:01:23;326.87;;;212.57;;
26201;SDS011;13944;28.562;77.188;2022-12-18T01:03:50;420.77;;;220.77;;
26201;SDS011;13944;28.562;77.188;2022-12-18T01:06:16;666.70;;;241.23;;
26201;SDS011;13944;28.562;77.188;2022-12-18T01:08:43;459.87;;;224.00;;
26201;SDS011;13944;28.562;77.188;2022-12-18T01:11:11;326.90;;;214.73;;
26201;SDS011;13944;28.562;77.188;2022-12-18T01:13:38;332.73;;;215.37;;
26201;SDS011;13944;28.562;77.188;2022-12-18T01:16:04;332.87;;;212.53;;
26201;SDS011;13944;28.562;77.188;2022-12-18T01:18:31;337.50;;;217.77;;
26201;SDS011;13944;28.562;77.188;2022-12-18T01:20:58;332.17;;;212.60;;
26201;SDS011;13944;28.562;77.188;2022-12-18T01:23:25;322.13;;;206.47;;
26201;SDS011;13944;28.562;77.188;2022-12-18T01:25:51;319.40;;;207.10;;
26201;SDS011;13944;28.562;77.188;2022-12-18T01:28:18;312.93;;;203.20;;
26201;SDS011;13944;28.562;77.188;2022-12-18T01:30:44;293.77;;;198.27;;
26201;SDS011;13944;28.562;77.188;2022-12-18T01:33:11;293.73;;;194.97;;
26201;SDS011;13944;28.562;77.188;2022-12-18T01:35:41;294.30;;;200.40;;
26201;SDS011;13944;28.562;77.188;2022-12-18T01:38:08;288.93;;;198.20;;
26201;SDS011;13944;28.562;77.188;2022-12-18T01:40:34;301.00;;;199.23;;
26201;SDS011;13944;28.562;77.188;2022-12-18T01:43:01;321.97;;;201.33;;
26201;SDS011;13944;28.562;77.188;2022-12-18T01:45:28;301.77;;;202.63;;
26201;SDS011;13944;28.562;77.188;2022-12-18T01:48:02;299.70;;;200.87;;
26201;SDS011;13944;28.562;77.188;2022-12-18T01:53:03;296.53;;;199.97;;
26201;SDS011;13944;28.562;77.188;2022-12-18T01:55:32;288.07;;;195.13;;
26201;SDS011;13944;28.562;77.188;2022-12-18T01:58:01;280.67;;;189.43;;
26201;SDS011;13944;28.562;77.188;2022-12-18T02:00:28;298.63;;;195.57;;
26201;SDS011;13944;28.562;77.188;2022-12-18T02:02:54;291.50;;;191.83;;
26201;SDS011;13944;28.562;77.188;2022-12-18T02:08:08;300.03;;;194.90;;
26201;SDS011;13944;28.562;77.188;2022-12-18T02:15:51;293.60;;;199.97;;
26201;SDS011;13944;28.562;77.188;2022-12-18T02:18:24;294.97;;;199.87;;
26201;SDS011;13944;28.562;77.188;2022-12-18T02:21:36;302.83;;;202.60;;
26201;SDS011;13944;28.562;77.188;2022-12-18T02:28:42;315.83;;;211.13;;
26201;SDS011;13944;28.562;77.188;2022-12-18T02:31:11;325.97;;;218.40;;
26201;SDS011;13944;28.562;77.188;2022-12-18T02:33:37;326.57;;;222.50;;
26201;SDS011;13944;28.562;77.188;2022-12-18T02:36:05;317.70;;;220.50;;
26201;SDS011;13944;28.562;77.188;2022-12-18T02:38:32;346.90;;;229.83;;
26201;SDS011;13944;28.562;77.188;2022-12-18T02:40:59;318.90;;;228.67;;
26201;SDS011;13944;28.562;77.188;2022-12-18T02:43:26;323.73;;;223.07;;
26201;SDS011;13944;28.562;77.188;2022-12-18T02:45:57;320.80;;;225.63;;
26201;SDS011;13944;28.562;77.188;2022-12-18T02:48:33;331.10;;;230.43;;
26201;SDS011;13944;28.562;77.188;2022-12-18T02:51:03;330.73;;;226.20;;
26201;SDS011;13944;28.562;77.188;2022-12-18T02:53:40;318.00;;;216.70;;
26201;SDS011;13944;28.562;77.188;2022-12-18T02:56:20;325.73;;;217.67;;
26201;SDS011;13944;28.562;77.188;2022-12-18T03:04:04;278.03;;;185.33;;
26201;SDS011;13944;28.562;77.188;2022-12-18T03:06:33;268.77;;;179.47;;
26201;SDS011;13944;28.562;77.188;2022-12-18T03:09:09;283.07;;;184.97;;
26201;SDS011;13944;28.562;77.188;2022-12-18T03:11:37;328.67;;;204.17;;
26201;SDS011;13944;28.562;77.188;2022-12-18T03:14:23;298.73;;;194.23;;
26201;SDS011;13944;28.562;77.188;2022-12-18T03:16:52;271.63;;;176.90;;
26201;SDS011;13944;28.562;77.188;2022-12-18T03:19:21;253.10;;;164.73;;
26201;SDS011;13944;28.562;77.188;2022-12-18T03:21:53;242.60;;;159.30;;
26201;SDS011;13944;28.562;77.188;2022-12-18T03:24:20;241.17;;;154.33;;
26201;SDS011;13944;28.562;77.188;2022-12-18T03:26:49;233.03;;;152.97;;
26201;SDS011;13944;28.562;77.188;2022-12-18T03:31:53;232.70;;;149.37;;
26201;SDS011;13944;28.562;77.188;2022-12-18T03:34:26;232.67;;;153.00;;
26201;SDS011;13944;28.562;77.188;2022-12-18T03:36:55;231.90;;;149.60;;
26201;SDS011;13944;28.562;77.188;2022-12-18T03:39:23;233.27;;;149.17;;
26201;SDS011;13944;28.562;77.188;2022-12-18T03:47:15;225.50;;;142.23;;
26201;SDS011;13944;28.562;77.188;2022-12-18T03:52:25;232.50;;;142.67;;
26201;SDS011;13944;28.562;77.188;2022-12-18T03:54:52;210.77;;;139.73;;
26201;SDS011;13944;28.562;77.188;2022-12-18T03:57:21;217.40;;;143.20;;
26201;SDS011;13944;28.562;77.188;2022-12-18T03:59:49;210.63;;;141.33;;
26201;SDS011;13944;28.562;77.188;2022-12-18T04:02:19;223.43;;;143.23;;
26201;SDS011;13944;28.562;77.188;2022-12-18T04:04:47;232.33;;;145.30;;
26201;SDS011;13944;28.562;77.188;2022-12-18T04:07:16;228.73;;;146.57;;
26201;SDS011;13944;28.562;77.188;2022-12-18T04:09:43;226.40;;;146.50;;
26201;SDS011;13944;28.562;77.188;2022-12-18T04:12:10;228.23;;;148.20;;
26201;SDS011;13944;28.562;77.188;2022-12-18T04:14:37;233.63;;;148.10;;
26201;SDS011;13944;28.562;77.188;2022-12-18T04:17:03;224.63;;;148.57;;
26201;SDS011;13944;28.562;77.188;2022-12-18T04:19:30;224.90;;;148.97;;
26201;SDS011;13944;28.562;77.188;2022-12-18T04:21:57;222.70;;;149.23;;
26201;SDS011;13944;28.562;77.188;2022-12-18T04:24:23;228.67;;;150.33;;
26201;SDS011;13944;28.562;77.188;2022-12-18T04:26:50;231.43;;;152.00;;
26201;SDS011;13944;28.562;77.188;2022-12-18T04:29:16;232.00;;;153.27;;
26201;SDS011;13944;28.562;77.188;2022-12-18T04:31:43;231.20;;;153.37;;
26201;SDS011;13944;28.562;77.188;2022-12-18T04:34:09;234.97;;;155.23;;
26201;SDS011;13944;28.562;77.188;2022-12-18T04:36:36;280.37;;;179.80;;
26201;SDS011;13944;28.562;77.188;2022-12-18T04:39:03;259.80;;;184.63;;
26201;SDS011;13944;28.562;77.188;2022-12-18T04:41:29;256.70;;;179.77;;
26201;SDS011;13944;28.562;77.188;2022-12-18T04:43:56;266.40;;;178.00;;
26201;SDS011;13944;28.562;77.188;2022-12-18T04:46:22;251.63;;;173.53;;
26201;SDS011;13944;28.562;77.188;2022-12-18T04:48:49;264.43;;;176.83;;
26201;SDS011;13944;28.562;77.188;2022-12-18T04:51:15;251.73;;;172.57;;
26201;SDS011;13944;28.562;77.188;2022-12-18T04:53:42;261.40;;;176.37;;
26201;SDS011;13944;28.562;77.188;2022-12-18T04:56:10;256.17;;;173.87;;
26201;SDS011;13944;28.562;77.188;2022-12-18T04:58:37;265.93;;;176.67;;
26201;SDS011;13944;28.562;77.188;2022-12-18T05:01:04;267.67;;;183.60;;
26201;SDS011;13944;28.562;77.188;2022-12-18T05:03:32;276.87;;;186.47;;
26201;SDS011;13944;28.562;77.188;2022-12-18T05:05:59;275.67;;;190.63;;
26201;SDS011;13944;28.562;77.188;2022-12-18T05:08:26;272.87;;;186.20;;
26201;SDS011;13944;28.562;77.188;2022-12-18T05:11:03;274.57;;;188.43;;
26201;SDS011;13944;28.562;77.188;2022-12-18T05:13:29;284.17;;;192.27;;
26201;SDS011;13944;28.562;77.188;2022-12-18T05:15:56;278.80;;;194.47;;
26201;SDS011;13944;28.562;77.188;2022-12-18T05:18:23;298.23;;;205.97;;
26201;SDS011;13944;28.562;77.188;2022-12-18T05:20:50;280.87;;;199.23;;
26201;SDS011;13944;28.562;77.188;2022-12-18T05:23:17;283.80;;;194.47;;
26201;SDS011;13944;28.562;77.188;2022-12-18T05:25:53;287.60;;;196.90;;
26201;SDS011;13944;28.562;77.188;2022-12-18T05:28:21;286.60;;;200.07;;
26201;SDS011;13944;28.562;77.188;2022-12-18T05:30:49;270.70;;;194.47;;
26201;SDS011;13944;28.562;77.188;2022-12-18T05:33:16;281.53;;;194.13;;
26201;SDS011;13944;28.562;77.188;2022-12-18T05:35:43;289.57;;;203.40;;
26201;SDS011;13944;28.562;77.188;2022-12-18T05:38:10;279.77;;;193.17;;
26201;SDS011;13944;28.562;77.188;2022-12-18T05:40:36;286.60;;;201.13;;
26201;SDS011;13944;28.562;77.188;2022-12-18T05:43:03;285.20;;;202.37;;
26201;SDS011;13944;28.562;77.188;2022-12-18T05:45:29;278.20;;;193.47;;
26201;SDS011;13944;28.562;77.188;2022-12-18T05:47:56;264.10;;;190.93;;
26201;SDS011;13944;28.562;77.188;2022-12-18T05:50:22;281.97;;;193.77;;
26201;SDS011;13944;28.562;77.188;2022-12-18T05:52:49;275.77;;;195.73;;
26201;SDS011;13944;28.562;77.188;2022-12-18T05:55:15;278.23;;;193.50;;
26201;SDS011;13944;28.562;77.188;2022-12-18T05:57:42;262.10;;;190.67;;
26201;SDS011;13944;28.562;77.188;2022-12-18T06:00:09;279.83;;;190.27;;
26201;SDS011;13944;28.562;77.188;2022-12-18T06:02:35;271.57;;;189.60;;
26201;SDS011;13944;28.562;77.188;2022-12-18T06:05:02;274.30;;;186.77;;
26201;SDS011;13944;28.562;77.188;2022-12-18T06:07:29;271.10;;;185.67;;
26201;SDS011;13944;28.562;77.188;2022-12-18T06:09:55;270.40;;;186.13;;
26201;SDS011;13944;28.562;77.188;2022-12-18T06:12:22;273.40;;;190.07;;
26201;SDS011;13944;28.562;77.188;2022-12-18T06:14:48;264.20;;;187.30;;
26201;SDS011;13944;28.562;77.188;2022-12-18T06:17:15;274.60;;;186.63;;
26201;SDS011;13944;28.562;77.188;2022-12-18T06:19:41;266.83;;;185.93;;
26201;SDS011;13944;28.562;77.188;2022-12-18T06:22:07;264.90;;;184.00;;
26201;SDS011;13944;28.562;77.188;2022-12-18T06:24:34;276.07;;;184.37;;
26201;SDS011;13944;28.562;77.188;2022-12-18T06:27:00;258.17;;;179.10;;
26201;SDS011;13944;28.562;77.188;2022-12-18T06:29:27;271.90;;;186.00;;
26201;SDS011;13944;28.562;77.188;2022-12-18T06:31:54;261.30;;;186.30;;
26201;SDS011;13944;28.562;77.188;2022-12-18T06:34:20;270.60;;;181.87;;
26201;SDS011;13944;28.562;77.188;2022-12-18T06:36:47;266.30;;;184.97;;
26201;SDS011;13944;28.562;77.188;2022-12-18T06:39:13;272.87;;;182.80;;
26201;SDS011;13944;28.562;77.188;2022-12-18T06:41:40;262.93;;;185.03;;
26201;SDS011;13944;28.562;77.188;2022-12-18T06:44:06;267.73;;;179.43;;
26201;SDS011;13944;28.562;77.188;2022-12-18T06:46:33;270.93;;;181.93;;
26201;SDS011;13944;28.562;77.188;2022-12-18T06:48:59;272.07;;;185.57;;
26201;SDS011;13944;28.562;77.188;2022-12-18T06:51:26;251.47;;;179.83;;
26201;SDS011;13944;28.562;77.188;2022-12-18T06:53:52;256.90;;;178.03;;
26201;SDS011;13944;28.562;77.188;2022-12-18T06:56:19;264.37;;;178.77;;
26201;SDS011;13944;28.562;77.188;2022-12-18T06:58:45;267.60;;;177.33;;
26201;SDS011;13944;28.562;77.188;2022-12-18T07:01:12;262.77;;;176.17;;
26201;SDS011;13944;28.562;77.188;2022-12-18T07:03:39;259.97;;;178.20;;
26201;SDS011;13944;28.562;77.188;2022-12-18T07:06:06;263.87;;;180.20;;
26201;SDS011;13944;28.562;77.188;2022-12-18T07:08:33;265.87;;;180.20;;
26201;SDS011;13944;28.562;77.188;2022-12-18T07:11:02;260.03;;;177.13;;
26201;SDS011;13944;28.562;77.188;2022-12-18T07:13:28;255.57;;;173.57;;
26201;SDS011;13944;28.562;77.188;2022-12-18T07:15:55;269.33;;;181.70;;
26201;SDS011;13944;28.562;77.188;2022-12-18T07:18:21;257.83;;;178.43;;
26201;SDS011;13944;28.562;77.188;2022-12-18T07:20:48;264.40;;;180.30;;
26201;SDS011;13944;28.562;77.188;2022-12-18T07:23:14;259.83;;;180.53;;
26201;SDS011;13944;28.562;77.188;2022-12-18T07:25:41;266.23;;;182.50;;
26201;SDS011;13944;28.562;77.188;2022-12-18T07:28:07;256.53;;;180.07;;
26201;SDS011;13944;28.562;77.188;2022-12-18T07:30:36;266.20;;;179.37;;
26201;SDS011;13944;28.562;77.188;2022-12-18T07:33:02;262.60;;;174.83;;
26201;SDS011;13944;28.562;77.188;2022-12-18T07:35:29;252.30;;;168.90;;
26201;SDS011;13944;28.562;77.188;2022-12-18T07:37:55;261.13;;;172.20;;
26201;SDS011;13944;28.562;77.188;2022-12-18T07:40:22;266.03;;;177.50;;
26201;SDS011;13944;28.562;77.188;2022-12-18T07:42:48;260.27;;;174.93;;
26201;SDS011;13944;28.562;77.188;2022-12-18T07:45:15;258.37;;;176.43;;
26201;SDS011;13944;28.562;77.188;2022-12-18T07:47:42;261.53;;;176.20;;
26201;SDS011;13944;28.562;77.188;2022-12-18T07:50:08;257.77;;;173.43;;
26201;SDS011;13944;28.562;77.188;2022-12-18T07:52:35;259.20;;;174.53;;
26201;SDS011;13944;28.562;77.188;2022-12-18T07:55:02;265.67;;;179.83;;
26201;SDS011;13944;28.562;77.188;2022-12-18T07:57:28;267.33;;;181.87;;
26201;SDS011;13944;28.562;77.188;2022-12-18T07:59:55;267.97;;;178.50;;
26201;SDS011;13944;28.562;77.188;2022-12-18T08:02:21;270.37;;;177.83;;
26201;SDS011;13944;28.562;77.188;2022-12-18T08:04:48;256.30;;;180.90;;
26201;SDS011;13944;28.562;77.188;2022-12-18T08:07:15;266.30;;;178.57;;
26201;SDS011;13944;28.562;77.188;2022-12-18T08:09:41;280.07;;;183.30;;
26201;SDS011;13944;28.562;77.188;2022-12-18T08:12:08;262.10;;;182.57;;
26201;SDS011;13944;28.562;77.188;2022-12-18T08:14:34;270.40;;;179.93;;
26201;SDS011;13944;28.562;77.188;2022-12-18T08:17:01;267.67;;;181.43;;
26201;SDS011;13944;28.562;77.188;2022-12-18T08:19:27;269.43;;;178.63;;
26201;SDS011;13944;28.562;77.188;2022-12-18T08:21:54;265.67;;;181.17;;
26201;SDS011;13944;28.562;77.188;2022-12-18T08:24:20;261.70;;;178.23;;
26201;SDS011;13944;28.562;77.188;2022-12-18T08:26:47;260.87;;;176.47;;
26201;SDS011;13944;28.562;77.188;2022-12-18T08:29:13;258.17;;;174.20;;
26201;SDS011;13944;28.562;77.188;2022-12-18T08:31:40;250.50;;;172.27;;
26201;SDS011;13944;28.562;77.188;2022-12-18T08:34:07;263.43;;;176.97;;
26201;SDS011;13944;28.562;77.188;2022-12-18T08:36:34;262.80;;;177.50;;
26201;SDS011;13944;28.562;77.188;2022-12-18T08:39:00;278.90;;;185.40;;
26201;SDS011;13944;28.562;77.188;2022-12-18T08:41:27;268.07;;;185.33;;
26201;SDS011;13944;28.562;77.188;2022-12-18T08:43:54;272.13;;;184.43;;
26201;SDS011;13944;28.562;77.188;2022-12-18T08:46:40;268.87;;;180.87;;
26201;SDS011;13944;28.562;77.188;2022-12-18T08:49:07;264.07;;;177.97;;
26201;SDS011;13944;28.562;77.188;2022-12-18T08:51:34;266.17;;;181.77;;
26201;SDS011;13944;28.562;77.188;2022-12-18T08:54:01;276.23;;;186.27;;
26201;SDS011;13944;28.562;77.188;2022-12-18T08:56:28;278.53;;;189.90;;
26201;SDS011;13944;28.562;77.188;2022-12-18T08:58:55;278.33;;;188.17;;
26201;SDS011;13944;28.562;77.188;2022-12-18T09:01:22;275.13;;;186.53;;
26201;SDS011;13944;28.562;77.188;2022-12-18T09:03:49;262.17;;;182.90;;
26201;SDS011;13944;28.562;77.188;2022-12-18T09:06:17;290.83;;;183.20;;
26201;SDS011;13944;28.562;77.188;2022-12-18T09:08:44;296.27;;;189.63;;
26201;SDS011;13944;28.562;77.188;2022-12-18T09:11:15;288.83;;;181.90;;
26201;SDS011;13944;28.562;77.188;2022-12-18T09:13:41;283.20;;;181.80;;
26201;SDS011;13944;28.562;77.188;2022-12-18T09:16:08;275.73;;;181.43;;
26201;SDS011;13944;28.562;77.188;2022-12-18T09:18:35;280.60;;;181.97;;
26201;SDS011;13944;28.562;77.188;2022-12-18T09:21:14;279.60;;;184.83;;
26201;SDS011;13944;28.562;77.188;2022-12-18T09:23:41;278.73;;;183.53;;
26201;SDS011;13944;28.562;77.188;2022-12-18T09:26:08;284.50;;;187.27;;
26201;SDS011;13944;28.562;77.188;2022-12-18T09:28:34;283.60;;;185.37;;
26201;SDS011;13944;28.562;77.188;2022-12-18T09:31:05;291.80;;;194.73;;
26201;SDS011;13944;28.562;77.188;2022-12-18T09:33:33;283.20;;;196.07;;
26201;SDS011;13944;28.562;77.188;2022-12-18T09:36:00;290.03;;;196.83;;
26201;SDS011;13944;28.562;77.188;2022-12-18T09:38:27;298.43;;;199.87;;
26201;SDS011;13944;28.562;77.188;2022-12-18T09:40:56;311.20;;;204.40;;
26201;SDS011;13944;28.562;77.188;2022-12-18T09:43:25;292.17;;;195.00;;
26201;SDS011;13944;28.562;77.188;2022-12-18T09:45:53;285.83;;;193.73;;
26201;SDS011;13944;28.562;77.188;2022-12-18T09:48:22;278.07;;;184.67;;
26201;SDS011;13944;28.562;77.188;2022-12-18T09:50:49;267.33;;;172.53;;
26201;SDS011;13944;28.562;77.188;2022-12-18T09:53:21;263.80;;;174.10;;
26201;SDS011;13944;28.562;77.188;2022-12-18T09:55:52;272.90;;;171.57;;
26201;SDS011;13944;28.562;77.188;2022-12-18T09:58:35;259.00;;;169.07;;
26201;SDS011;13944;28.562;77.188;2022-12-18T10:01:09;263.50;;;173.33;;
26201;SDS011;13944;28.562;77.188;2022-12-18T10:03:36;260.00;;;174.63;;
26201;SDS011;13944;28.562;77.188;2022-12-18T10:06:07;268.93;;;176.00;;
26201;SDS011;13944;28.562;77.188;2022-12-18T10:22:01;242.27;;;160.47;;
26201;SDS011;13944;28.562;77.188;2022-12-18T10:27:14;243.60;;;157.40;;
26201;SDS011;13944;28.562;77.188;2022-12-18T10:29:44;233.13;;;155.60;;
26201;SDS011;13944;28.562;77.188;2022-12-18T10:32:16;230.43;;;152.40;;
26201;SDS011;13944;28.562;77.188;2022-12-18T10:34:47;219.60;;;148.57;;
26201;SDS011;13944;28.562;77.188;2022-12-18T10:37:17;230.03;;;146.93;;
26201;SDS011;13944;28.562;77.188;2022-12-18T10:39:45;217.80;;;146.73;;
26201;SDS011;13944;28.562;77.188;2022-12-18T10:42:19;221.73;;;145.20;;
26201;SDS011;13944;28.562;77.188;2022-12-18T10:44:45;216.27;;;145.30;;
26201;SDS011;13944;28.562;77.188;2022-12-18T10:47:14;224.40;;;146.87;;
26201;SDS011;13944;28.562;77.188;2022-12-18T10:49:42;216.03;;;143.43;;
26201;SDS011;13944;28.562;77.188;2022-12-18T10:54:50;226.50;;;146.87;;
26201;SDS011;13944;28.562;77.188;2022-12-18T10:59:57;216.73;;;141.70;;
26201;SDS011;13944;28.562;77.188;2022-12-18T11:02:26;215.07;;;145.40;;
26201;SDS011;13944;28.562;77.188;2022-12-18T11:04:53;233.03;;;148.90;;
26201;SDS011;13944;28.562;77.188;2022-12-18T11:07:20;238.50;;;150.63;;
26201;SDS011;13944;28.562;77.188;2022-12-18T11:09:46;241.07;;;153.63;;
26201;SDS011;13944;28.562;77.188;2022-12-18T11:12:25;230.03;;;151.60;;
26201;SDS011;13944;28.562;77.188;2022-12-18T11:14:54;240.77;;;152.50;;
26201;SDS011;13944;28.562;77.188;2022-12-18T11:17:31;248.43;;;153.27;;
26201;SDS011;13944;28.562;77.188;2022-12-18T11:20:01;242.03;;;151.97;;
26201;SDS011;13944;28.562;77.188;2022-12-18T11:22:29;247.60;;;152.83;;
26201;SDS011;13944;28.562;77.188;2022-12-18T11:27:29;236.70;;;152.47;;
26201;SDS011;13944;28.562;77.188;2022-12-18T11:32:41;249.17;;;158.47;;
26201;SDS011;13944;28.562;77.188;2022-12-18T11:37:49;252.90;;;163.87;;
26201;SDS011;13944;28.562;77.188;2022-12-18T11:40:20;262.40;;;163.33;;
26201;SDS011;13944;28.562;77.188;2022-12-18T11:43:25;272.37;;;166.47;;
26201;SDS011;13944;28.562;77.188;2022-12-18T11:45:50;265.37;;;164.70;;
26201;SDS011;13944;28.562;77.188;2022-12-18T11:48:29;269.97;;;168.97;;
26201;SDS011;13944;28.562;77.188;2022-12-18T11:50:57;271.50;;;172.93;;
26201;SDS011;13944;28.562;77.188;2022-12-18T11:53:25;275.43;;;175.20;;
26201;SDS011;13944;28.562;77.188;2022-12-18T11:56:01;268.33;;;170.57;;
26201;SDS011;13944;28.562;77.188;2022-12-18T12:03:51;310.23;;;186.63;;
26201;SDS011;13944;28.562;77.188;2022-12-18T12:14:28;307.83;;;199.97;;
26201;SDS011;13944;28.562;77.188;2022-12-18T12:32:05;338.27;;;214.83;;
26201;SDS011;13944;28.562;77.188;2022-12-18T12:34:49;338.40;;;218.63;;
26201;SDS011;13944;28.562;77.188;2022-12-18T12:37:25;335.80;;;218.73;;
26201;SDS011;13944;28.562;77.188;2022-12-18T12:39:57;338.37;;;221.23;;
26201;SDS011;13944;28.562;77.188;2022-12-18T12:42:32;340.13;;;218.77;;
26201;SDS011;13944;28.562;77.188;2022-12-18T12:45:22;338.53;;;220.77;;
26201;SDS011;13944;28.562;77.188;2022-12-18T12:47:49;360.70;;;229.70;;
26201;SDS011;13944;28.562;77.188;2022-12-18T12:50:18;341.00;;;231.73;;
26201;SDS011;13944;28.562;77.188;2022-12-18T12:52:46;345.03;;;230.40;;
26201;SDS011;13944;28.562;77.188;2022-12-18T12:55:21;346.17;;;235.33;;
26201;SDS011;13944;28.562;77.188;2022-12-18T12:57:53;362.47;;;236.60;;
26201;SDS011;13944;28.562;77.188;2022-12-18T13:00:21;379.97;;;247.17;;
26201;SDS011;13944;28.562;77.188;2022-12-18T13:03:08;366.47;;;242.37;;
26201;SDS011;13944;28.562;77.188;2022-12-18T13:05:40;361.30;;;244.43;;
26201;SDS011;13944;28.562;77.188;2022-12-18T13:08:11;369.10;;;243.33;;
26201;SDS011;13944;28.562;77.188;2022-12-18T13:20:35;379.07;;;260.13;;
26201;SDS011;13944;28.562;77.188;2022-12-18T13:25:47;414.20;;;290.93;;
26201;SDS011;13944;28.562;77.188;2022-12-18T13:28:48;432.70;;;303.97;;
26201;SDS011;13944;28.562;77.188;2022-12-18T13:31:01;437.87;;;309.53;;
26201;SDS011;13944;28.562;77.188;2022-12-18T13:36:02;454.80;;;329.87;;
26201;SDS011;13944;28.562;77.188;2022-12-18T13:38:35;475.07;;;349.97;;
26201;SDS011;13944;28.562;77.188;2022-12-18T13:41:04;488.63;;;355.37;;
26201;SDS011;13944;28.562;77.188;2022-12-18T13:46:04;499.37;;;373.67;;
26201;SDS011;13944;28.562;77.188;2022-12-18T13:48:33;504.33;;;371.80;;
26201;SDS011;13944;28.562;77.188;2022-12-18T13:51:01;500.07;;;369.73;;
26201;SDS011;13944;28.562;77.188;2022-12-18T13:54:13;500.77;;;370.63;;
26201;SDS011;13944;28.562;77.188;2022-12-18T13:56:21;497.53;;;370.47;;
26201;SDS011;13944;28.562;77.188;2022-12-18T13:59:04;492.90;;;367.43;;
26201;SDS011;13944;28.562;77.188;2022-12-18T14:01:31;508.10;;;374.67;;
26201;SDS011;13944;28.562;77.188;2022-12-18T14:06:43;510.57;;;375.27;;
26201;SDS011;13944;28.562;77.188;2022-12-18T14:09:14;512.90;;;378.23;;
26201;SDS011;13944;28.562;77.188;2022-12-18T14:11:45;496.03;;;372.30;;
26201;SDS011;13944;28.562;77.188;2022-12-18T14:14:16;511.43;;;374.77;;
26201;SDS011;13944;28.562;77.188;2022-12-18T14:16:43;537.67;;;404.73;;
26201;SDS011;13944;28.562;77.188;2022-12-18T14:19:12;528.17;;;397.57;;
26201;SDS011;13944;28.562;77.188;2022-12-18T14:21:40;518.73;;;399.87;;
26201;SDS011;13944;28.562;77.188;2022-12-18T14:26:40;526.93;;;403.80;;
26201;SDS011;13944;28.562;77.188;2022-12-18T14:29:26;516.93;;;398.90;;
26201;SDS011;13944;28.562;77.188;2022-12-18T14:32:13;523.73;;;399.50;;
26201;SDS011;13944;28.562;77.188;2022-12-18T14:34:45;512.00;;;391.17;;
26201;SDS011;13944;28.562;77.188;2022-12-18T14:37:13;502.10;;;379.30;;
26201;SDS011;13944;28.562;77.188;2022-12-18T14:39:40;495.70;;;369.07;;
26201;SDS011;13944;28.562;77.188;2022-12-18T14:42:10;498.53;;;372.67;;
26201;SDS011;13944;28.562;77.188;2022-12-18T14:44:36;487.50;;;368.50;;
26201;SDS011;13944;28.562;77.188;2022-12-18T14:47:03;491.23;;;369.97;;
26201;SDS011;13944;28.562;77.188;2022-12-18T14:49:30;503.27;;;372.00;;
26201;SDS011;13944;28.562;77.188;2022-12-18T14:52:01;497.63;;;368.43;;
26201;SDS011;13944;28.562;77.188;2022-12-18T14:54:28;492.47;;;370.37;;
26201;SDS011;13944;28.562;77.188;2022-12-18T14:59:22;514.03;;;377.83;;
26201;SDS011;13944;28.562;77.188;2022-12-18T15:04:35;535.27;;;407.87;;
26201;SDS011;13944;28.562;77.188;2022-12-18T15:09:30;542.07;;;395.93;;
26201;SDS011;13944;28.562;77.188;2022-12-18T15:11:58;558.27;;;415.63;;
26201;SDS011;13944;28.562;77.188;2022-12-18T15:17:01;562.07;;;408.03;;
26201;SDS011;13944;28.562;77.188;2022-12-18T15:19:34;551.70;;;402.93;;
26201;SDS011;13944;28.562;77.188;2022-12-18T15:22:01;542.40;;;394.13;;
26201;SDS011;13944;28.562;77.188;2022-12-18T15:24:29;532.83;;;387.90;;
26201;SDS011;13944;28.562;77.188;2022-12-18T15:26:57;528.73;;;388.43;;
26201;SDS011;13944;28.562;77.188;2022-12-18T15:29:23;520.73;;;381.50;;
26201;SDS011;13944;28.562;77.188;2022-12-18T15:32:26;530.00;;;394.20;;
26201;SDS011;13944;28.562;77.188;2022-12-18T15:34:47;543.47;;;409.80;;
26201;SDS011;13944;28.562;77.188;2022-12-18T15:37:13;547.97;;;411.30;;
26201;SDS011;13944;28.562;77.188;2022-12-18T15:39:41;558.97;;;414.37;;
26201;SDS011;13944;28.562;77.188;2022-12-18T15:42:08;549.47;;;416.60;;
26201;SDS011;13944;28.562;77.188;2022-12-18T15:44:53;568.43;;;422.93;;
26201;SDS011;13944;28.562;77.188;2022-12-18T15:47:20;558.63;;;418.83;;
26201;SDS011;13944;28.562;77.188;2022-12-18T15:49:46;556.77;;;426.60;;
26201;SDS011;13944;28.562;77.188;2022-12-18T15:52:13;550.77;;;420.80;;
26201;SDS011;13944;28.562;77.188;2022-12-18T15:54:51;569.37;;;426.30;;
26201;SDS011;13944;28.562;77.188;2022-12-18T15:57:36;552.80;;;414.90;;